Time;durP1;ratioP1;P1;durP2;ratioP2;P2;SDS_P1;SDS_P2;PMS_P1;PMS_P2;Temp;Humidity;BMP_temperature;BMP_pressure;BME280_temperature;BME280_humidity;BME280_pressure;Samples;Min_cycle;Max_cycle;Signal;HPM_P1;HPM_P2
2022/12/26 00:00:46;;;;;;;4.60;1.88;;;;;;;;;;4994807;28;20022;-73
2022/12/26 00:03:12;;;;;;;7.43;2.03;;;;;;;;;;4990958;28;20019;-75
2022/12/26 00:05:37;;;;;;;7.43;2.33;;;;;;;;;;4993406;28;20300;-74
2022/12/26 00:08:03;;;;;;;3.77;1.70;;;;;;;;;;4995738;28;20102;-74
2022/12/26 00:10:28;;;;;;;8.95;1.90;;;;;;;;;;4996856;28;20651;-74
2022/12/26 00:12:53;;;;;;;8.07;2.47;;;;;;;;;;4995840;28;20037;-74
2022/12/26 00:15:18;;;;;;;6.53;1.80;;;;;;;;;;4990282;28;20673;-72
2022/12/26 00:17:43;;;;;;;3.65;1.48;;;;;;;;;;4991559;28;20587;-71
2022/12/26 00:20:09;;;;;;;9.30;1.60;;;;;;;;;;4993559;28;20033;-71
2022/12/26 00:22:34;;;;;;;4.57;1.83;;;;;;;;;;4997368;28;20767;-71
2022/12/26 00:24:59;;;;;;;3.87;1.40;;;;;;;;;;5002016;28;20598;-73
2022/12/26 00:27:24;;;;;;;3.37;1.80;;;;;;;;;;4997217;28;20340;-75
2022/12/26 00:29:50;;;;;;;3.78;1.73;;;;;;;;;;4995065;28;20266;-74
2022/12/26 00:32:15;;;;;;;7.63;1.80;;;;;;;;;;4998401;28;20026;-75
2022/12/26 00:34:40;;;;;;;4.30;1.10;;;;;;;;;;4993928;28;20310;-75
2022/12/26 00:37:05;;;;;;;5.93;1.57;;;;;;;;;;4998627;28;20521;-74
2022/12/26 00:39:30;;;;;;;2.43;1.47;;;;;;;;;;5000153;28;20292;-73
2022/12/26 00:41:56;;;;;;;3.28;1.08;;;;;;;;;;5001307;28;20276;-74
2022/12/26 00:44:21;;;;;;;4.63;1.20;;;;;;;;;;4997252;28;20033;-74
2022/12/26 00:46:46;;;;;;;7.10;2.17;;;;;;;;;;4991476;28;20265;-73
2022/12/26 00:49:11;;;;;;;7.20;1.70;;;;;;;;;;4995941;28;20277;-73
2022/12/26 00:51:36;;;;;;;4.22;1.40;;;;;;;;;;4995970;28;20380;-73
2022/12/26 00:54:01;;;;;;;3.60;1.07;;;;;;;;;;4997049;28;20430;-73
2022/12/26 00:56:27;;;;;;;4.83;2.07;;;;;;;;;;4992209;28;20315;-74
2022/12/26 00:58:52;;;;;;;8.70;1.77;;;;;;;;;;4991743;28;20272;-74
2022/12/26 01:01:18;;;;;;;4.50;1.50;;;;;;;;;;4993088;28;20690;-73
2022/12/26 01:03:44;;;;;;;5.57;1.83;;;;;;;;;;4992067;28;20050;-73
2022/12/26 01:06:09;;;;;;;6.22;1.80;;;;;;;;;;5002154;28;20018;-73
2022/12/26 01:08:35;;;;;;;3.95;1.73;;;;;;;;;;4994624;28;20471;-72
2022/12/26 01:11:08;;;;;;;1.70;1.10;;;;;;;;;;4991833;28;20018;-73
2022/12/26 01:13:33;;;;;;;5.05;2.08;;;;;;;;;;4998951;28;20022;-73
2022/12/26 01:15:58;;;;;;;3.58;1.70;;;;;;;;;;4993873;28;20091;-73
2022/12/26 01:18:24;;;;;;;2.00;1.10;;;;;;;;;;4998120;28;20471;-73
2022/12/26 01:20:49;;;;;;;2.88;0.98;;;;;;;;;;5007373;28;20599;-73
2022/12/26 01:23:15;;;;;;;7.25;1.85;;;;;;;;;;4990753;28;20032;-73
2022/12/26 01:25:40;;;;;;;7.20;1.77;;;;;;;;;;4991884;28;20010;-73
2022/12/26 01:28:05;;;;;;;3.17;1.53;;;;;;;;;;4994785;28;20041;-74
2022/12/26 01:30:30;;;;;;;9.23;1.75;;;;;;;;;;4991584;28;20604;-73
2022/12/26 01:32:56;;;;;;;4.40;1.50;;;;;;;;;;4993757;28;20023;-74
2022/12/26 01:35:21;;;;;;;10.40;1.92;;;;;;;;;;4992727;28;20278;-73
2022/12/26 01:37:46;;;;;;;7.95;1.30;;;;;;;;;;4993444;28;20037;-73
2022/12/26 01:40:12;;;;;;;4.57;1.60;;;;;;;;;;4993920;28;20253;-72
2022/12/26 01:42:38;;;;;;;2.90;1.45;;;;;;;;;;4993671;28;20820;-73
2022/12/26 01:45:19;;;;;;;5.28;1.35;;;;;;;;;;4996522;28;20018;-73
2022/12/26 01:47:48;;;;;;;3.88;1.63;;;;;;;;;;5005085;28;20037;-73
2022/12/26 01:50:31;;;;;;;5.15;1.45;;;;;;;;;;4996663;28;20181;-72
2022/12/26 01:53:03;;;;;;;7.13;1.42;;;;;;;;;;5001438;28;20018;-73
2022/12/26 01:55:30;;;;;;;4.00;1.15;;;;;;;;;;4999990;28;20029;-73
2022/12/26 01:57:58;;;;;;;2.83;1.25;;;;;;;;;;4997383;28;20129;-71
2022/12/26 02:00:23;;;;;;;8.90;2.63;;;;;;;;;;4996757;28;20105;-73
2022/12/26 02:05:33;;;;;;;7.43;2.97;;;;;;;;;;4998758;28;20279;-73
2022/12/26 02:07:58;;;;;;;4.93;1.40;;;;;;;;;;4999330;28;20390;-73
2022/12/26 02:10:25;;;;;;;6.40;1.13;;;;;;;;;;4996296;28;20068;-73
2022/12/26 02:12:51;;;;;;;6.18;1.90;;;;;;;;;;5005881;28;20125;-73
2022/12/26 02:15:16;;;;;;;9.23;1.42;;;;;;;;;;4994288;28;20026;-73
2022/12/26 02:17:42;;;;;;;4.90;2.45;;;;;;;;;;5005515;28;20068;-73
2022/12/26 02:20:24;;;;;;;10.23;1.48;;;;;;;;;;4993834;28;20804;-73
2022/12/26 02:22:58;;;;;;;9.93;2.30;;;;;;;;;;4996932;28;20014;-73
2022/12/26 02:25:23;;;;;;;5.90;1.65;;;;;;;;;;4999103;28;20018;-72
2022/12/26 02:28:21;;;;;;;6.97;1.55;;;;;;;;;;4993621;28;20080;-73
2022/12/26 02:30:46;;;;;;;3.85;1.70;;;;;;;;;;4967624;28;20030;-73
2022/12/26 02:33:21;;;;;;;3.67;1.50;;;;;;;;;;4992691;28;20534;-73
2022/12/26 02:36:01;;;;;;;4.63;1.27;;;;;;;;;;4997836;28;20339;-73
2022/12/26 02:38:32;;;;;;;5.65;1.63;;;;;;;;;;4992088;28;20050;-72
2022/12/26 02:41:08;;;;;;;8.45;1.52;;;;;;;;;;4994822;28;20114;-73
2022/12/26 02:43:51;;;;;;;5.68;1.60;;;;;;;;;;4992245;28;20041;-73
2022/12/26 02:49:08;;;;;;;4.53;1.38;;;;;;;;;;4994143;28;20084;-73
2022/12/26 03:14:23;;;;;;;10.23;2.55;;;;;;;;;;4992475;28;20029;-73
2022/12/26 03:19:36;;;;;;;3.33;1.40;;;;;;;;;;4997644;28;20145;-72
2022/12/26 03:22:29;;;;;;;11.98;1.63;;;;;;;;;;4996899;28;20022;-73
2022/12/26 03:27:32;;;;;;;1.55;1.00;;;;;;;;;;4993300;28;20035;-72
2022/12/26 03:32:42;;;;;;;3.60;1.33;;;;;;;;;;4995437;28;20037;-73
2022/12/26 03:35:11;;;;;;;3.63;1.25;;;;;;;;;;4997219;28;20482;-73
2022/12/26 03:37:46;;;;;;;7.70;1.83;;;;;;;;;;4999536;28;20026;-73
2022/12/26 04:19:35;;;;;;;2.67;1.65;;;;;;;;;;5009227;28;20604;-70
2022/12/26 04:44:13;;;;;;;4.50;1.70;;;;;;;;;;4988117;28;20284;-71
2022/12/26 04:46:40;;;;;;;4.63;2.35;;;;;;;;;;4989352;28;20022;-70
2022/12/26 04:51:53;;;;;;;4.93;2.97;;;;;;;;;;4985796;28;20462;-70
2022/12/26 04:54:18;;;;;;;3.28;1.90;;;;;;;;;;4988175;28;20113;-70
2022/12/26 04:56:44;;;;;;;7.95;2.67;;;;;;;;;;4988895;28;20101;-72
2022/12/26 04:59:09;;;;;;;6.53;3.90;;;;;;;;;;4988307;28;20371;-70
2022/12/26 05:09:49;;;;;;;10.88;5.40;;;;;;;;;;4987440;28;20041;-70
2022/12/26 05:12:14;;;;;;;9.80;5.82;;;;;;;;;;4988515;28;20026;-70
2022/12/26 05:14:39;;;;;;;13.47;5.97;;;;;;;;;;4988784;28;20534;-70
2022/12/26 05:30:52;;;;;;;12.73;4.80;;;;;;;;;;4986800;28;20041;-70
2022/12/26 05:36:01;;;;;;;5.88;3.13;;;;;;;;;;4987233;28;20405;-71
2022/12/26 05:38:26;;;;;;;8.82;3.65;;;;;;;;;;4988530;28;20119;-70
2022/12/26 05:40:52;;;;;;;4.23;2.20;;;;;;;;;;4986875;28;20077;-70
2022/12/26 05:43:18;;;;;;;3.73;2.10;;;;;;;;;;4987197;28;20275;-70
2022/12/26 05:45:43;;;;;;;7.28;1.80;;;;;;;;;;4988742;28;20626;-71
2022/12/26 05:48:09;;;;;;;4.57;1.85;;;;;;;;;;4987775;28;20018;-71
2022/12/26 05:50:34;;;;;;;3.83;1.60;;;;;;;;;;4987766;28;20041;-70
2022/12/26 05:52:59;;;;;;;4.07;1.95;;;;;;;;;;4987030;28;20312;-70
2022/12/26 05:55:24;;;;;;;7.18;2.13;;;;;;;;;;4987259;28;20022;-70
2022/12/26 05:57:50;;;;;;;18.17;6.88;;;;;;;;;;4987935;28;20033;-70
2022/12/26 06:00:15;;;;;;;29.77;13.43;;;;;;;;;;4988038;28;20030;-70
2022/12/26 06:02:40;;;;;;;22.08;10.57;;;;;;;;;;4985864;28;20031;-70
2022/12/26 06:05:05;;;;;;;33.75;16.15;;;;;;;;;;4988546;28;20023;-69
2022/12/26 06:07:31;;;;;;;10.13;4.57;;;;;;;;;;4987657;28;20022;-69
2022/12/26 06:09:56;;;;;;;3.60;2.20;;;;;;;;;;4989408;28;20069;-69
2022/12/26 06:12:21;;;;;;;6.68;1.50;;;;;;;;;;4986929;28;20466;-69
2022/12/26 06:14:46;;;;;;;8.23;1.20;;;;;;;;;;4987726;28;20023;-70
2022/12/26 06:17:13;;;;;;;2.47;1.10;;;;;;;;;;4986008;28;20391;-69
2022/12/26 06:19:38;;;;;;;3.83;1.10;;;;;;;;;;4986593;28;20281;-69
2022/12/26 06:22:03;;;;;;;5.30;1.13;;;;;;;;;;4986952;28;20022;-69
2022/12/26 06:24:28;;;;;;;2.83;0.73;;;;;;;;;;4989886;28;20010;-69
2022/12/26 06:26:54;;;;;;;1.80;0.60;;;;;;;;;;4993953;28;20663;-69
2022/12/26 06:29:19;;;;;;;2.27;0.90;;;;;;;;;;4989787;28;20284;-69
2022/12/26 06:31:44;;;;;;;1.75;0.70;;;;;;;;;;4991612;28;20265;-69
2022/12/26 06:34:09;;;;;;;3.20;0.93;;;;;;;;;;4991249;28;20522;-69
2022/12/26 06:36:35;;;;;;;1.83;0.65;;;;;;;;;;4990843;28;20276;-69
2022/12/26 06:39:00;;;;;;;0.98;0.55;;;;;;;;;;4990877;28;20018;-69
2022/12/26 06:41:25;;;;;;;0.95;0.60;;;;;;;;;;4991454;28;20030;-70
2022/12/26 06:43:51;;;;;;;1.83;0.65;;;;;;;;;;4991171;28;20105;-70
2022/12/26 06:46:17;;;;;;;2.15;0.40;;;;;;;;;;4991731;28;20108;-70
2022/12/26 06:48:43;;;;;;;2.05;0.50;;;;;;;;;;4991250;28;20030;-70
2022/12/26 06:51:12;;;;;;;1.40;0.50;;;;;;;;;;4990389;28;20274;-70
2022/12/26 06:53:38;;;;;;;2.72;0.70;;;;;;;;;;4990459;28;20039;-70
2022/12/26 06:56:07;;;;;;;1.73;0.40;;;;;;;;;;4988605;28;20030;-70
2022/12/26 06:58:32;;;;;;;3.72;0.57;;;;;;;;;;4985115;28;20536;-70
2022/12/26 07:01:08;;;;;;;1.58;0.60;;;;;;;;;;4987128;28;20113;-70
2022/12/26 07:03:33;;;;;;;1.98;0.60;;;;;;;;;;4989368;28;20463;-70
2022/12/26 07:06:05;;;;;;;2.58;0.55;;;;;;;;;;4987619;28;21646;-70
2022/12/26 07:08:31;;;;;;;0.82;0.43;;;;;;;;;;4990963;28;20026;-70
2022/12/26 07:10:56;;;;;;;1.70;0.63;;;;;;;;;;4988964;28;20034;-70
2022/12/26 07:13:21;;;;;;;1.33;0.63;;;;;;;;;;4991760;28;20025;-70
2022/12/26 07:15:47;;;;;;;3.20;0.65;;;;;;;;;;4989732;28;20054;-70
2022/12/26 07:18:12;;;;;;;0.93;0.30;;;;;;;;;;4991888;28;20088;-70
2022/12/26 07:20:37;;;;;;;0.63;0.40;;;;;;;;;;4989278;28;20101;-70
2022/12/26 07:23:02;;;;;;;1.13;0.40;;;;;;;;;;4991121;28;20284;-70
2022/12/26 07:25:27;;;;;;;2.50;0.70;;;;;;;;;;4989884;28;20015;-70
2022/12/26 07:27:53;;;;;;;2.60;0.70;;;;;;;;;;4990259;28;20309;-70
2022/12/26 07:30:18;;;;;;;1.40;0.50;;;;;;;;;;4989572;28;20277;-70
2022/12/26 07:32:43;;;;;;;2.70;0.93;;;;;;;;;;4989992;28;20027;-70
2022/12/26 07:35:08;;;;;;;0.87;0.40;;;;;;;;;;4986963;28;20285;-70
2022/12/26 07:37:33;;;;;;;2.10;0.93;;;;;;;;;;4990443;28;20277;-70
2022/12/26 07:39:59;;;;;;;3.70;0.80;;;;;;;;;;4989686;28;20023;-69
2022/12/26 07:42:24;;;;;;;4.45;0.95;;;;;;;;;;4988915;28;20281;-69
2022/12/26 07:44:49;;;;;;;6.37;1.27;;;;;;;;;;4989948;28;20102;-69
2022/12/26 07:47:14;;;;;;;3.70;0.50;;;;;;;;;;4988849;28;20266;-70
2022/12/26 07:49:39;;;;;;;1.87;0.50;;;;;;;;;;4989636;28;20491;-69
2022/12/26 07:52:05;;;;;;;2.03;0.60;;;;;;;;;;4988940;28;20305;-69
2022/12/26 07:54:31;;;;;;;1.07;0.40;;;;;;;;;;4989606;28;20340;-70
2022/12/26 07:56:56;;;;;;;1.30;0.70;;;;;;;;;;4989112;28;20550;-70
2022/12/26 07:59:21;;;;;;;1.08;0.60;;;;;;;;;;4989110;28;20018;-70
2022/12/26 08:01:46;;;;;;;0.90;0.60;;;;;;;;;;4988926;28;20019;-69
2022/12/26 08:04:12;;;;;;;1.40;0.83;;;;;;;;;;4991084;28;20049;-69
2022/12/26 08:06:37;;;;;;;1.88;1.13;;;;;;;;;;4988294;28;20269;-69
2022/12/26 08:09:02;;;;;;;2.63;1.10;;;;;;;;;;4990370;28;20026;-69
2022/12/26 08:11:30;;;;;;;1.70;0.75;;;;;;;;;;4989343;28;20467;-69
2022/12/26 08:13:56;;;;;;;1.67;0.80;;;;;;;;;;4990127;28;20023;-69
2022/12/26 08:16:21;;;;;;;3.78;0.70;;;;;;;;;;4989078;28;20038;-69
2022/12/26 08:18:46;;;;;;;5.50;0.83;;;;;;;;;;4990122;28;20467;-69
2022/12/26 08:21:11;;;;;;;4.13;0.80;;;;;;;;;;4989736;28;20369;-69
2022/12/26 08:23:37;;;;;;;2.95;1.05;;;;;;;;;;4990558;28;20258;-69
2022/12/26 08:26:09;;;;;;;4.03;0.70;;;;;;;;;;4989500;28;20387;-69
2022/12/26 08:28:34;;;;;;;1.15;0.60;;;;;;;;;;4989237;28;20037;-69
2022/12/26 08:31:03;;;;;;;2.72;1.05;;;;;;;;;;4987797;28;20027;-69
2022/12/26 08:33:28;;;;;;;2.83;0.68;;;;;;;;;;4989345;28;20025;-69
2022/12/26 08:35:53;;;;;;;2.30;0.60;;;;;;;;;;4989143;28;20026;-69
2022/12/26 08:38:18;;;;;;;2.10;0.70;;;;;;;;;;4989108;28;20566;-69
2022/12/26 08:40:44;;;;;;;2.58;1.80;;;;;;;;;;4988146;28;20333;-69
2022/12/26 08:43:09;;;;;;;3.27;1.00;;;;;;;;;;4988730;28;20054;-69
2022/12/26 08:45:34;;;;;;;3.93;0.57;;;;;;;;;;4987845;28;20273;-69
2022/12/26 08:48:01;;;;;;;2.83;0.70;;;;;;;;;;4989029;28;20284;-69
2022/12/26 08:50:26;;;;;;;3.50;1.42;;;;;;;;;;4989039;28;20277;-69
2022/12/26 08:52:52;;;;;;;2.97;1.30;;;;;;;;;;4988393;28;20104;-69
2022/12/26 08:55:17;;;;;;;4.30;1.10;;;;;;;;;;4988758;28;20365;-69
2022/12/26 08:57:42;;;;;;;3.40;1.13;;;;;;;;;;4987294;28;20293;-69
2022/12/26 09:00:08;;;;;;;2.47;0.90;;;;;;;;;;4989672;28;20038;-69
2022/12/26 09:02:33;;;;;;;3.63;1.30;;;;;;;;;;4988646;28;20734;-69
2022/12/26 09:04:58;;;;;;;2.17;1.30;;;;;;;;;;4989655;28;20360;-69
2022/12/26 09:07:24;;;;;;;2.43;1.07;;;;;;;;;;4987900;28;20282;-69
2022/12/26 09:09:49;;;;;;;9.55;1.35;;;;;;;;;;4988275;28;20392;-69
2022/12/26 09:12:14;;;;;;;5.43;2.00;;;;;;;;;;4988395;28;20022;-69
2022/12/26 09:14:39;;;;;;;3.13;1.80;;;;;;;;;;4987741;28;20308;-69
2022/12/26 09:17:05;;;;;;;6.63;1.90;;;;;;;;;;4988331;28;20047;-69
2022/12/26 09:19:31;;;;;;;4.90;1.93;;;;;;;;;;4988157;28;20281;-69
2022/12/26 09:24:40;;;;;;;8.07;1.85;;;;;;;;;;4988692;28;20030;-69
2022/12/26 09:27:06;;;;;;;4.50;1.20;;;;;;;;;;4987460;28;20018;-69
2022/12/26 09:29:31;;;;;;;9.45;2.55;;;;;;;;;;4987190;28;20305;-69
2022/12/26 09:31:56;;;;;;;3.73;1.27;;;;;;;;;;4986301;28;20498;-69
2022/12/26 09:34:21;;;;;;;2.10;1.20;;;;;;;;;;4988203;28;20278;-69
2022/12/26 09:36:46;;;;;;;4.18;1.25;;;;;;;;;;4985976;28;20281;-69
2022/12/26 09:39:12;;;;;;;1.87;1.00;;;;;;;;;;4985514;28;20038;-69
2022/12/26 09:41:49;;;;;;;3.13;1.30;;;;;;;;;;4986295;28;20638;-69
2022/12/26 09:44:17;;;;;;;4.53;1.25;;;;;;;;;;4987365;28;20281;-69
2022/12/26 09:46:42;;;;;;;3.00;1.20;;;;;;;;;;4986536;28;20023;-69
2022/12/26 09:49:11;;;;;;;4.18;1.40;;;;;;;;;;4986523;28;20496;-69
2022/12/26 09:51:36;;;;;;;4.50;1.20;;;;;;;;;;4981269;28;20124;-69
2022/12/26 09:54:04;;;;;;;5.68;1.55;;;;;;;;;;4984941;28;20049;-69
2022/12/26 09:56:32;;;;;;;2.58;1.55;;;;;;;;;;4988250;28;20019;-69
2022/12/26 09:59:04;;;;;;;4.45;1.40;;;;;;;;;;4991623;28;20109;-69
2022/12/26 10:01:33;;;;;;;2.83;1.08;;;;;;;;;;4991481;28;20058;-69
2022/12/26 10:03:59;;;;;;;2.85;1.15;;;;;;;;;;4981949;28;20011;-69
2022/12/26 10:06:26;;;;;;;3.72;1.08;;;;;;;;;;4992450;28;20109;-69
2022/12/26 10:08:57;;;;;;;3.78;1.27;;;;;;;;;;4987532;28;20026;-69
2022/12/26 10:11:41;;;;;;;7.03;1.50;;;;;;;;;;4992593;28;20482;-69
2022/12/26 10:14:18;;;;;;;4.13;1.23;;;;;;;;;;4992370;28;20085;-69
2022/12/26 10:16:49;;;;;;;10.20;0.60;;;;;;;;;;4990175;28;20108;-69
2022/12/26 10:19:25;;;;;;;8.60;1.30;;;;;;;;;;4991793;28;20359;-69
2022/12/26 10:22:11;;;;;;;1.35;0.57;;;;;;;;;;4988226;28;20034;-69
2022/12/26 10:24:37;;;;;;;5.07;1.02;;;;;;;;;;4991827;28;20042;-69
2022/12/26 10:27:05;;;;;;;2.80;0.93;;;;;;;;;;4991318;28;20021;-69
2022/12/26 10:29:38;;;;;;;7.53;1.25;;;;;;;;;;4992064;28;20097;-69
2022/12/26 10:32:07;;;;;;;1.98;0.65;;;;;;;;;;4991201;28;20046;-69
2022/12/26 10:34:35;;;;;;;3.25;0.73;;;;;;;;;;4992458;28;20084;-69
2022/12/26 10:37:09;;;;;;;6.15;1.67;;;;;;;;;;4989639;28;20475;-69
2022/12/26 10:39:34;;;;;;;4.60;1.08;;;;;;;;;;4991261;28;20023;-69
2022/12/26 10:42:02;;;;;;;9.30;1.20;;;;;;;;;;4989146;28;20121;-69
2022/12/26 10:44:27;;;;;;;4.20;1.10;;;;;;;;;;4992841;28;20261;-69
2022/12/26 10:47:02;;;;;;;6.20;1.27;;;;;;;;;;4990380;28;20022;-69
2022/12/26 10:49:27;;;;;;;4.47;1.23;;;;;;;;;;4991008;28;20018;-68
2022/12/26 10:51:54;;;;;;;1.33;0.63;;;;;;;;;;4990230;28;20029;-68
2022/12/26 10:54:19;;;;;;;2.83;0.75;;;;;;;;;;4990441;28;20352;-69
2022/12/26 10:56:46;;;;;;;8.68;1.80;;;;;;;;;;4989197;28;20014;-69
2022/12/26 10:59:22;;;;;;;3.35;0.77;;;;;;;;;;4990128;28;20024;-68
2022/12/26 11:01:48;;;;;;;3.28;0.90;;;;;;;;;;4991750;28;20374;-68
2022/12/26 11:04:24;;;;;;;7.45;1.23;;;;;;;;;;4993277;28;20086;-68
2022/12/26 11:06:51;;;;;;;2.00;1.00;;;;;;;;;;4986762;28;20018;-68
2022/12/26 11:09:34;;;;;;;1.33;0.70;;;;;;;;;;4986000;28;20021;-69
2022/12/26 11:12:00;;;;;;;2.35;0.95;;;;;;;;;;4986343;28;20030;-69
2022/12/26 11:14:25;;;;;;;8.48;1.25;;;;;;;;;;4987722;28;20504;-69
2022/12/26 11:16:50;;;;;;;3.80;0.80;;;;;;;;;;4985414;28;20544;-69
2022/12/26 11:19:29;;;;;;;2.63;0.82;;;;;;;;;;4990483;28;20274;-68
2022/12/26 11:22:12;;;;;;;4.50;0.80;;;;;;;;;;4985986;28;20018;-69
2022/12/26 11:24:37;;;;;;;3.33;0.88;;;;;;;;;;4991896;28;20022;-69
2022/12/26 11:27:15;;;;;;;4.05;0.93;;;;;;;;;;4989574;28;20019;-69
2022/12/26 11:29:41;;;;;;;3.92;1.10;;;;;;;;;;4986898;28;20059;-69
2022/12/26 11:32:15;;;;;;;5.57;1.10;;;;;;;;;;4989046;28;20056;-69
2022/12/26 11:34:46;;;;;;;8.27;0.93;;;;;;;;;;4986136;28;20493;-70
2022/12/26 11:37:40;;;;;;;3.88;1.33;;;;;;;;;;4987999;28;20110;-68
2022/12/26 11:40:14;;;;;;;4.40;0.98;;;;;;;;;;4967911;28;20084;-68
2022/12/26 11:42:39;;;;;;;3.90;1.60;;;;;;;;;;4988801;28;20037;-70
2022/12/26 11:45:09;;;;;;;6.43;0.93;;;;;;;;;;4989739;28;20022;-69
2022/12/26 11:47:34;;;;;;;4.03;0.93;;;;;;;;;;4990766;28;20542;-69
2022/12/26 11:50:03;;;;;;;10.40;0.90;;;;;;;;;;4988663;28;20118;-68
2022/12/26 11:52:37;;;;;;;2.80;0.82;;;;;;;;;;4983389;28;20302;-67
2022/12/26 11:55:28;;;;;;;1.75;1.15;;;;;;;;;;4984755;28;20030;-69
2022/12/26 11:58:12;;;;;;;2.55;0.80;;;;;;;;;;4957804;28;20034;-68
2022/12/26 12:00:42;;;;;;;13.32;1.20;;;;;;;;;;4984807;28;20379;-68
2022/12/26 12:03:23;;;;;;;5.03;0.98;;;;;;;;;;4985919;28;20024;-69
2022/12/26 12:05:54;;;;;;;2.33;0.90;;;;;;;;;;4989257;28;20018;-69
2022/12/26 12:08:22;;;;;;;3.15;0.82;;;;;;;;;;4989350;28;20022;-70
2022/12/26 12:11:01;;;;;;;6.10;1.20;;;;;;;;;;4987318;28;20028;-70
2022/12/26 12:13:26;;;;;;;1.35;0.38;;;;;;;;;;4986869;28;20026;-71
2022/12/26 12:23:53;;;;;;;3.97;0.68;;;;;;;;;;5003501;28;20034;-70
2022/12/26 12:26:27;;;;;;;8.50;0.80;;;;;;;;;;5003368;28;20060;-70
2022/12/26 12:29:24;;;;;;;;;;;;;;;;;;;;;
2022/12/26 12:32:04;;;;;;;7.93;1.10;;;;;;;;;;5017076;28;20020;-71
2022/12/26 12:34:34;;;;;;;5.57;0.85;;;;;;;;;;5014308;28;20108;-69
2022/12/26 12:36:59;;;;;;;;;;;;;;;;;;5017398;28;20043;-69
2022/12/26 12:39:36;;;;;;;7.55;0.93;;;;;;;;;;5014974;28;19909;-69
2022/12/26 12:42:17;;;;;;;4.78;0.75;;;;;;;;;;5014589;28;20112;-70
2022/12/26 12:44:52;;;;;;;5.25;1.00;;;;;;;;;;5013272;28;20103;-69
2022/12/26 12:47:17;;;;;;;5.43;0.90;;;;;;;;;;5193455;23;20231;-69
2022/12/26 12:50:04;;;;;;;2.35;0.93;;;;;;;;;;5027452;28;20124;-69
2022/12/26 12:52:40;;;;;;;1.80;1.17;;;;;;;;;;5024542;28;20096;-69
2022/12/26 12:55:08;;;;;;;7.18;1.35;;;;;;;;;;5029777;28;20032;-70
2022/12/26 12:57:47;;;;;;;0.82;0.47;;;;;;;;;;5005996;28;20022;-69
2022/12/26 13:00:22;;;;;;;4.13;0.82;;;;;;;;;;5007291;28;20025;-69
2022/12/26 13:02:48;;;;;;;3.45;0.85;;;;;;;;;;5004336;28;20064;-69
2022/12/26 13:05:17;;;;;;;4.95;1.13;;;;;;;;;;5003904;28;20042;-69
2022/12/26 13:07:44;;;;;;;7.97;2.33;;;;;;;;;;5000753;28;20030;-69
2022/12/26 13:10:16;;;;;;;4.43;0.82;;;;;;;;;;5006669;28;20109;-69
2022/12/26 13:12:41;;;;;;;1.85;0.70;;;;;;;;;;4999890;28;20752;-69
2022/12/26 13:15:12;;;;;;;3.72;1.50;;;;;;;;;;4998261;28;20018;-71
2022/12/26 13:17:43;;;;;;;6.15;1.38;;;;;;;;;;5000328;28;20017;-71
2022/12/26 13:20:24;;;;;;;4.32;0.73;;;;;;;;;;4993819;28;20057;-70
2022/12/26 13:25:40;;;;;;;4.25;0.90;;;;;;;;;;5002676;28;20115;-70
2022/12/26 13:28:10;;;;;;;3.73;1.27;;;;;;;;;;5006335;28;20454;-70
2022/12/26 13:30:36;;;;;;;5.15;0.90;;;;;;;;;;5007818;28;20784;-70
2022/12/26 13:33:02;;;;;;;13.20;1.00;;;;;;;;;;5010526;28;20030;-69
2022/12/26 13:35:48;;;;;;;7.97;1.13;;;;;;;;;;5010568;28;20466;-69
2022/12/26 13:38:14;;;;;;;1.38;0.90;;;;;;;;;;5010502;28;20014;-69
2022/12/26 13:40:44;;;;;;;3.22;1.00;;;;;;;;;;5011321;28;20025;-70
2022/12/26 13:46:01;;;;;;;3.45;1.52;;;;;;;;;;5011305;28;20052;-70
2022/12/26 13:48:29;;;;;;;9.32;1.58;;;;;;;;;;5011669;28;20470;-70
2022/12/26 13:51:01;;;;;;;4.28;1.52;;;;;;;;;;5010512;28;20371;-70
2022/12/26 13:53:36;;;;;;;6.85;1.98;;;;;;;;;;5007838;28;20109;-70
2022/12/26 13:56:16;;;;;;;6.07;2.38;;;;;;;;;;5008142;28;20052;-69
2022/12/26 13:58:47;;;;;;;6.15;1.92;;;;;;;;;;5008610;28;20486;-70
2022/12/26 14:01:31;;;;;;;11.13;2.28;;;;;;;;;;5006248;28;20053;-70
2022/12/26 14:04:14;;;;;;;6.47;1.95;;;;;;;;;;5007870;28;20691;-70
2022/12/26 14:06:57;;;;;;;6.50;1.90;;;;;;;;;;5002512;28;20388;-70
2022/12/26 14:09:26;;;;;;;7.43;1.90;;;;;;;;;;5020361;28;20014;-69
2022/12/26 14:11:51;;;;;;;5.72;1.73;;;;;;;;;;5004857;28;20501;-69
2022/12/26 14:14:25;;;;;;;2.83;1.20;;;;;;;;;;5006080;28;20029;-69
2022/12/26 14:17:02;;;;;;;5.70;1.98;;;;;;;;;;5004685;28;20040;-70
2022/12/26 14:19:55;;;;;;;8.93;1.42;;;;;;;;;;5005371;28;20022;-71
2022/12/26 14:22:32;;;;;;;9.73;1.88;;;;;;;;;;5003514;28;20045;-70
2022/12/26 14:25:32;;;;;;;5.53;1.90;;;;;;;;;;5004622;28;20021;-70
2022/12/26 14:28:21;;;;;;;15.93;2.10;;;;;;;;;;5001716;28;20100;-71
2022/12/26 14:31:25;;;;;;;;;;;;;;;;;;;;;
2022/12/26 14:34:08;;;;;;;3.80;1.98;;;;;;;;;;5001592;28;20467;-70
2022/12/26 14:36:37;;;;;;;9.27;2.13;;;;;;;;;;5001194;28;20018;-71
2022/12/26 14:39:20;;;;;;;5.53;2.10;;;;;;;;;;5006093;28;20030;-70
2022/12/26 14:44:44;;;;;;;13.90;2.40;;;;;;;;;;5010230;28;20493;-70
2022/12/26 14:47:10;;;;;;;6.70;1.90;;;;;;;;;;5011330;28;20014;-71
2022/12/26 14:49:37;;;;;;;6.95;2.20;;;;;;;;;;5012305;28;20010;-71
2022/12/26 14:52:20;;;;;;;13.80;2.67;;;;;;;;;;5009902;28;20030;-71
2022/12/26 14:54:46;;;;;;;9.13;1.73;;;;;;;;;;5009845;28;20093;-71
2022/12/26 14:57:30;;;;;;;10.50;1.95;;;;;;;;;;5011844;28;20098;-70
2022/12/26 15:00:13;;;;;;;9.77;2.83;;;;;;;;;;5011992;28;20018;-71
2022/12/26 15:02:41;;;;;;;12.38;3.10;;;;;;;;;;5012247;28;20014;-71
2022/12/26 15:05:16;;;;;;;17.75;3.45;;;;;;;;;;5012103;28;20014;-70
2022/12/26 15:07:53;;;;;;;15.60;2.80;;;;;;;;;;5009360;28;20100;-70
2022/12/26 15:10:19;;;;;;;11.43;3.63;;;;;;;;;;5011186;28;20083;-70
2022/12/26 15:12:47;;;;;;;12.75;3.78;;;;;;;;;;5011139;28;20101;-71
2022/12/26 15:15:12;;;;;;;8.63;3.28;;;;;;;;;;5009650;28;20273;-71
2022/12/26 15:18:16;;;;;;;20.02;4.40;;;;;;;;;;5009640;28;20486;-71
2022/12/26 15:20:59;;;;;;;8.57;1.95;;;;;;;;;;5006442;28;20295;-71
2022/12/26 15:23:27;;;;;;;8.52;1.73;;;;;;;;;;5008660;28;20084;-71
2022/12/26 15:25:58;;;;;;;3.58;1.33;;;;;;;;;;5010661;28;20085;-71
2022/12/26 15:28:23;;;;;;;7.50;1.23;;;;;;;;;;5010758;28;20041;-71
2022/12/26 15:30:58;;;;;;;4.57;1.20;;;;;;;;;;5011069;28;20068;-70
2022/12/26 15:33:28;;;;;;;11.20;2.75;;;;;;;;;;5011578;28;20313;-70
2022/12/26 15:36:13;;;;;;;8.05;1.55;;;;;;;;;;5007948;28;20026;-70
2022/12/26 15:38:41;;;;;;;11.45;1.70;;;;;;;;;;5007965;28;20391;-70
2022/12/26 15:41:25;;;;;;;7.63;1.83;;;;;;;;;;5011163;28;20018;-70
2022/12/26 15:44:05;;;;;;;6.57;1.95;;;;;;;;;;5011182;28;20021;-70
2022/12/26 15:46:33;;;;;;;9.65;2.13;;;;;;;;;;5010736;28;20022;-70
2022/12/26 15:49:20;;;;;;;12.57;1.55;;;;;;;;;;5011051;28;20053;-70
2022/12/26 15:51:46;;;;;;;11.50;1.70;;;;;;;;;;5004553;28;20104;-71
2022/12/26 15:54:23;;;;;;;7.72;1.98;;;;;;;;;;5006142;28;20105;-70
2022/12/26 15:57:06;;;;;;;15.63;2.25;;;;;;;;;;5006838;28;20273;-71
2022/12/26 15:59:42;;;;;;;12.75;2.20;;;;;;;;;;5011064;28;20021;-70
2022/12/26 16:02:10;;;;;;;14.32;3.22;;;;;;;;;;5010157;28;20018;-70
2022/12/26 16:04:41;;;;;;;9.20;1.80;;;;;;;;;;5011021;28;20497;-70
2022/12/26 16:07:24;;;;;;;7.10;1.65;;;;;;;;;;5010517;28;20022;-70
2022/12/26 16:09:52;;;;;;;10.77;2.95;;;;;;;;;;5007495;28;20018;-70
2022/12/26 16:12:20;;;;;;;13.90;1.88;;;;;;;;;;5007583;28;20136;-70
2022/12/26 16:14:45;;;;;;;9.77;2.22;;;;;;;;;;5010895;28;20025;-71
2022/12/26 16:17:20;;;;;;;6.70;1.83;;;;;;;;;;5055045;28;20389;-70
2022/12/26 16:19:50;;;;;;;9.55;1.90;;;;;;;;;;5046926;28;20025;-70
2022/12/26 16:25:22;;;;;;;12.48;1.85;;;;;;;;;;5043878;28;20045;-71
2022/12/26 16:27:48;;;;;;;11.25;1.92;;;;;;;;;;5056003;28;20390;-70
2022/12/26 16:30:18;;;;;;;9.50;2.45;;;;;;;;;;5063113;23;20127;-74
2022/12/26 16:32:44;;;;;;;;;;;;;;;;;;5025962;28;20488;-73
2022/12/26 16:35:17;;;;;;;9.27;2.40;;;;;;;;;;5025345;28;19913;-74
2022/12/26 16:37:42;;;;;;;6.30;2.20;;;;;;;;;;5025380;28;20026;-74
2022/12/26 16:40:10;;;;;;;8.98;2.10;;;;;;;;;;5018915;28;20080;-73
2022/12/26 16:42:35;;;;;;;11.50;6.20;;;;;;;;;;5011313;28;20072;-73
2022/12/26 16:45:01;;;;;;;22.70;9.90;;;;;;;;;;5020714;28;20021;-74
2022/12/26 16:47:27;;;;;;;27.50;10.57;;;;;;;;;;5006887;28;20033;-73
2022/12/26 16:49:52;;;;;;;78.38;33.85;;;;;;;;;;5006886;28;20406;-74
2022/12/26 16:52:29;;;;;;;212.27;98.32;;;;;;;;;;5007103;28;20021;-73
2022/12/26 16:54:55;;;;;;;53.85;22.95;;;;;;;;;;5007748;28;20072;-73
2022/12/26 16:57:20;;;;;;;45.70;22.87;;;;;;;;;;5006437;28;20014;-74
2022/12/26 16:59:54;;;;;;;122.80;58.90;;;;;;;;;;5006627;28;20257;-73
2022/12/26 17:02:22;;;;;;;70.07;31.40;;;;;;;;;;5011008;28;20017;-74
2022/12/26 17:04:51;;;;;;;48.03;20.38;;;;;;;;;;5008829;28;20068;-73
2022/12/26 17:07:16;;;;;;;42.63;10.48;;;;;;;;;;5000253;28;20018;-72
2022/12/26 17:09:44;;;;;;;23.15;4.97;;;;;;;;;;5005760;28;20080;-73
2022/12/26 17:12:17;;;;;;;15.38;5.90;;;;;;;;;;5004824;28;20041;-73
2022/12/26 17:14:44;;;;;;;15.18;4.13;;;;;;;;;;5005473;28;20049;-73
2022/12/26 17:17:22;;;;;;;8.98;4.00;;;;;;;;;;5005747;28;20023;-73
2022/12/26 17:19:48;;;;;;;8.98;4.20;;;;;;;;;;5006273;28;20010;-73
2022/12/26 17:22:13;;;;;;;14.52;4.82;;;;;;;;;;5007514;28;20081;-73
2022/12/26 17:24:38;;;;;;;11.57;3.37;;;;;;;;;;5008327;28;20022;-74